createdAt,value
2023-04-23T09:14:01.571Z,25.08
2023-04-23T09:16:30.890Z,25.10
2023-04-23T09:19:00.089Z,25.85
2023-04-23T09:21:29.364Z,25.40
2023-04-23T09:23:58.337Z,23.97
2023-04-23T09:26:27.565Z,23.63
2023-04-23T09:28:56.768Z,23.80
2023-04-23T09:31:25.856Z,22.30
2023-04-23T09:33:54.850Z,21.77
2023-04-23T09:36:23.757Z,22.00
2023-04-23T09:38:52.707Z,21.17
2023-04-23T09:41:21.831Z,21.17
2023-04-23T09:43:52.050Z,22.00
2023-04-23T09:46:21.143Z,21.20
2023-04-23T09:48:50.452Z,21.07
2023-04-23T09:51:19.648Z,19.75
2023-04-23T09:53:48.810Z,20.72
2023-04-23T09:56:18.161Z,21.42
2023-04-23T09:58:47.245Z,19.80
2023-04-23T10:01:16.454Z,18.52
2023-04-23T10:03:45.678Z,18.42
2023-04-23T10:06:30.566Z,20.77
2023-04-23T10:08:45.562Z,19.45
2023-04-23T10:13:44.780Z,19.07
2023-04-23T10:16:22.405Z,20.92
2023-04-23T10:18:43.987Z,20.97
2023-04-23T10:21:13.085Z,19.07
2023-04-23T10:23:42.090Z,21.90
2023-04-23T10:26:11.065Z,22.67
2023-04-23T10:28:39.960Z,20.52
2023-04-23T10:31:09.205Z,21.37
2023-04-23T10:33:49.348Z,20.08
2023-04-23T10:36:08.580Z,19.75
2023-04-23T10:38:45.474Z,20.80
2023-04-23T10:41:08.006Z,19.20
2023-04-23T10:43:37.204Z,20.55
2023-04-23T10:46:06.295Z,19.10
2023-04-23T10:48:35.160Z,19.42
2023-04-23T10:51:30.627Z,20.87
2023-04-23T10:53:34.681Z,20.75
2023-04-23T10:56:03.812Z,21.05
2023-04-23T10:58:32.802Z,21.12
2023-04-23T11:01:01.686Z,20.87
2023-04-23T11:03:30.840Z,19.27
2023-04-23T11:06:00.191Z,18.95
2023-04-23T11:08:30.514Z,21.12
2023-04-23T11:10:59.398Z,19.07
2023-04-23T11:13:28.410Z,19.97
2023-04-23T11:15:57.519Z,20.12
2023-04-23T11:18:26.486Z,19.25
2023-04-23T11:20:55.484Z,21.27
2023-04-23T11:23:24.579Z,20.93
2023-04-23T11:25:53.768Z,21.02
2023-04-23T11:28:22.659Z,20.27
2023-04-23T11:30:54.221Z,20.87
2023-04-23T11:33:23.240Z,20.85
2023-04-23T11:35:52.321Z,20.48
2023-04-23T11:38:21.590Z,19.92
2023-04-23T11:40:50.494Z,21.48
2023-04-23T11:43:19.468Z,21.33
2023-04-23T11:45:48.523Z,21.23
2023-04-23T11:48:17.485Z,21.30
2023-04-23T11:50:46.366Z,21.60
2023-04-23T11:53:15.375Z,19.90
2023-04-23T11:55:44.316Z,22.13
2023-04-23T11:58:13.661Z,22.10
2023-04-23T12:00:42.648Z,23.12
2023-04-23T12:03:11.649Z,22.97
2023-04-23T12:05:40.947Z,21.60
2023-04-23T12:08:09.938Z,23.42
2023-04-23T12:10:38.796Z,24.03
2023-04-23T12:13:07.822Z,22.93
2023-04-23T12:15:38.405Z,23.60
2023-04-23T12:18:07.001Z,22.77
2023-04-23T12:20:36.133Z,23.83
2023-04-23T12:23:05.128Z,23.32
2023-04-23T12:25:34.112Z,23.35
2023-04-23T12:28:03.074Z,23.63
2023-04-23T12:30:32.316Z,23.70
2023-04-23T12:33:01.364Z,24.43
2023-04-23T12:35:30.511Z,23.65
2023-04-23T12:37:59.599Z,22.73
2023-04-23T12:40:28.716Z,22.82
2023-04-23T12:42:57.792Z,23.35
2023-04-23T12:45:27.076Z,23.35
2023-04-23T12:47:56.144Z,20.80
2023-04-23T12:50:25.143Z,23.83
2023-04-23T12:52:54.277Z,23.13
2023-04-23T12:55:23.164Z,23.77
2023-04-23T12:57:52.151Z,23.27
2023-04-23T13:00:21.054Z,24.13
2023-04-23T13:02:50.542Z,22.22
2023-04-23T13:05:22.192Z,23.55
2023-04-23T13:07:53.348Z,23.47
2023-04-23T13:10:23.676Z,22.40
2023-04-23T13:12:52.878Z,25.13
2023-04-23T13:15:21.862Z,24.92
2023-04-23T13:17:50.786Z,23.27
2023-04-23T13:20:19.862Z,26.10
2023-04-23T13:22:48.852Z,24.92
2023-04-23T13:25:18.047Z,25.15
2023-04-23T13:27:46.934Z,25.50
2023-04-23T13:30:15.847Z,23.40
2023-04-23T13:32:44.841Z,24.10
2023-04-23T13:35:14.337Z,25.97
2023-04-23T13:37:43.421Z,23.77
2023-04-23T13:40:12.431Z,24.67
2023-04-23T13:42:41.302Z,24.67
2023-04-23T13:45:11.343Z,25.60
2023-04-23T13:47:41.284Z,26.40
2023-04-23T13:50:10.230Z,22.25
2023-04-23T13:52:39.336Z,19.40
2023-04-23T13:55:11.081Z,16.93
2023-04-23T13:57:39.984Z,16.50
2023-04-23T14:00:09.194Z,16.17
2023-04-23T14:02:38.438Z,19.40
2023-04-23T14:05:07.469Z,16.00
2023-04-23T14:07:36.678Z,14.00
2023-04-23T14:10:05.988Z,12.03
2023-04-23T14:12:34.994Z,12.47
2023-04-23T14:15:04.245Z,10.55
2023-04-23T14:17:33.372Z,10.28
2023-04-23T14:20:02.263Z,12.63
2023-04-23T14:22:31.344Z,13.60
2023-04-23T14:25:00.259Z,10.43
2023-04-23T14:27:29.536Z,11.70
2023-04-23T14:29:58.434Z,11.22
2023-04-23T14:32:27.732Z,10.32
2023-04-23T14:34:56.819Z,10.43
2023-04-23T14:37:25.928Z,10.15
2023-04-23T14:39:55.144Z,9.90
2023-04-23T14:42:24.315Z,10.15
2023-04-23T14:44:53.198Z,10.15
2023-04-23T14:47:22.196Z,8.98
2023-04-23T14:49:51.327Z,10.28
2023-04-23T14:52:20.609Z,8.83
2023-04-23T14:54:50.149Z,9.23
2023-04-23T14:57:19.501Z,9.95
2023-04-23T14:59:48.629Z,10.97
2023-04-23T15:02:17.807Z,10.80
2023-04-23T15:04:48.523Z,11.33
2023-04-23T15:07:17.524Z,11.68
2023-04-23T15:09:46.611Z,12.58
2023-04-23T15:12:16.121Z,11.80
2023-04-23T15:14:45.416Z,11.90
2023-04-23T15:17:14.446Z,13.73
2023-04-23T15:19:44.142Z,13.35
2023-04-23T15:22:13.333Z,13.00
2023-04-23T15:24:42.209Z,12.90
2023-04-23T15:27:11.310Z,12.88
2023-04-23T15:29:40.702Z,13.78
2023-04-23T15:32:09.965Z,11.85
2023-04-23T15:34:39.424Z,14.13
2023-04-23T15:37:08.617Z,12.77
2023-04-23T15:39:37.611Z,12.60
2023-04-23T15:42:06.711Z,12.18
2023-04-23T15:44:36.419Z,12.60
2023-04-23T15:47:05.726Z,13.93
2023-04-23T15:49:35.232Z,12.53
2023-04-23T15:52:04.314Z,12.95
2023-04-23T15:54:33.620Z,12.85
2023-04-23T15:57:03.014Z,12.03
2023-04-23T15:59:32.220Z,12.33
2023-04-23T16:02:01.571Z,12.83
2023-04-23T16:04:31.304Z,12.47
2023-04-23T16:07:00.956Z,12.68
2023-04-23T16:09:30.125Z,13.10
2023-04-23T16:11:59.325Z,12.63
2023-04-23T16:14:28.217Z,13.78
2023-04-23T16:16:57.558Z,13.55
2023-04-23T16:19:26.724Z,13.70
2023-04-23T16:21:59.099Z,13.30
2023-04-23T16:24:29.729Z,13.45
2023-04-23T16:26:59.026Z,13.32
2023-04-23T16:29:28.337Z,14.03
2023-04-23T16:31:58.122Z,13.40
2023-04-23T16:34:27.239Z,13.53
2023-04-23T16:36:59.714Z,13.32
2023-04-23T16:39:29.025Z,13.65
2023-04-23T16:41:58.518Z,12.78
2023-04-23T16:44:28.033Z,13.03
2023-04-23T16:46:57.339Z,13.50
2023-04-23T16:49:27.157Z,13.43
2023-04-23T16:51:56.439Z,12.97
2023-04-23T16:54:25.531Z,13.60
2023-04-23T16:56:54.623Z,13.18
2023-04-23T16:59:24.034Z,13.90
2023-04-23T17:01:53.417Z,12.77
2023-04-23T17:04:22.742Z,13.23
2023-04-23T17:06:52.028Z,13.47
2023-04-23T17:09:21.343Z,13.43
2023-04-23T17:11:50.527Z,13.53
2023-04-23T17:14:19.622Z,13.25
2023-04-23T17:16:48.718Z,13.22
2023-04-23T17:19:17.934Z,14.83
2023-04-23T17:21:47.534Z,15.57
2023-04-23T17:24:16.761Z,13.70
2023-04-23T17:26:45.923Z,16.80
2023-04-23T17:29:15.340Z,12.70
2023-04-23T17:31:44.458Z,13.40
2023-04-23T17:34:13.745Z,14.00
2023-04-23T17:36:43.048Z,14.30
2023-04-23T17:39:12.224Z,14.57
2023-04-23T17:41:41.305Z,13.80
2023-04-23T17:44:10.523Z,14.05
2023-04-23T17:46:39.719Z,13.70
2023-04-23T17:49:08.811Z,13.68
2023-04-23T17:51:38.116Z,14.18
2023-04-23T17:54:07.190Z,13.23
2023-04-23T17:56:36.299Z,13.65
2023-04-23T17:59:05.504Z,13.95
2023-04-23T18:01:34.921Z,13.05
2023-04-23T18:04:04.292Z,14.23
2023-04-23T18:06:33.620Z,14.45
2023-04-23T18:09:02.800Z,14.83
2023-04-23T18:11:31.982Z,14.75
2023-04-23T18:14:01.245Z,14.70
2023-04-23T18:16:30.644Z,14.78
2023-04-23T18:19:00.004Z,15.17
2023-04-23T18:21:29.306Z,13.90
2023-04-23T18:23:58.609Z,15.00
2023-04-23T18:26:29.315Z,14.25
2023-04-23T18:28:58.560Z,14.20
2023-04-23T18:31:27.770Z,14.45
2023-04-23T18:33:57.248Z,14.53
2023-04-23T18:36:26.771Z,13.27
2023-04-23T18:38:56.080Z,13.53
2023-04-23T18:41:25.240Z,14.37
2023-04-23T18:43:54.553Z,12.93
2023-04-23T18:46:23.893Z,12.95
2023-04-23T18:48:53.237Z,12.63
2023-04-23T18:51:22.555Z,11.88
2023-04-23T18:53:51.643Z,12.23
2023-04-23T18:56:20.844Z,13.40
2023-04-23T18:58:50.151Z,12.23
2023-04-23T19:01:19.593Z,11.93
2023-04-23T19:03:48.791Z,12.50
2023-04-23T19:06:18.146Z,12.93
2023-04-23T19:08:47.338Z,11.70
2023-04-23T19:11:16.343Z,13.93
2023-04-23T19:13:45.752Z,12.43
2023-04-23T19:16:15.081Z,11.60
2023-04-23T19:18:44.236Z,12.85
2023-04-23T19:21:13.449Z,11.95
2023-04-23T19:23:42.740Z,11.97
2023-04-23T19:26:12.044Z,11.53
2023-04-23T19:28:41.163Z,12.65
2023-04-23T19:31:10.798Z,12.90
2023-04-23T19:33:39.954Z,12.37
2023-04-23T19:36:09.057Z,11.35
2023-04-23T19:38:38.257Z,12.55
2023-04-23T19:41:07.437Z,11.43
2023-04-23T19:43:36.577Z,12.23
2023-04-23T19:46:05.724Z,12.95
2023-04-23T19:48:35.031Z,11.50
2023-04-23T19:51:04.339Z,12.13
2023-04-23T19:53:33.316Z,12.30
2023-04-23T19:56:02.314Z,12.00
2023-04-23T19:58:31.724Z,12.70
2023-04-23T20:01:01.155Z,12.00
2023-04-23T20:03:30.631Z,11.90
2023-04-23T20:05:59.719Z,11.80
2023-04-23T20:08:28.820Z,11.90
2023-04-23T20:10:57.901Z,10.75
2023-04-23T20:13:27.016Z,11.73
2023-04-23T20:15:56.106Z,11.40
2023-04-23T20:18:25.103Z,10.63
2023-04-23T20:20:53.987Z,10.60
2023-04-23T20:23:23.192Z,10.78
2023-04-23T20:25:52.283Z,10.60
2023-04-23T20:28:21.175Z,10.18
2023-04-23T20:30:50.170Z,11.03
2023-04-23T20:33:19.156Z,10.50
2023-04-23T20:35:48.358Z,10.55
2023-04-23T20:38:17.456Z,10.08
2023-04-23T20:40:46.558Z,10.50
2023-04-23T20:43:15.444Z,10.10
2023-04-23T20:45:44.381Z,11.10
2023-04-23T20:48:13.629Z,10.90
2023-04-23T20:50:42.541Z,11.18
2023-04-23T20:53:11.626Z,10.28
2023-04-23T20:55:40.824Z,11.33
2023-04-23T20:58:09.813Z,10.72
2023-04-23T21:00:38.802Z,11.22
2023-04-23T21:03:08.180Z,10.63
2023-04-23T21:05:37.311Z,10.90
2023-04-23T21:08:06.601Z,10.60
2023-04-23T21:10:35.595Z,10.20
2023-04-23T21:13:04.704Z,10.53
2023-04-23T21:15:33.704Z,10.88
2023-04-23T21:18:02.678Z,10.28
2023-04-23T21:20:31.891Z,10.63
2023-04-23T21:23:00.971Z,11.12
2023-04-23T21:25:29.974Z,9.80
2023-04-23T21:27:59.064Z,10.82
2023-04-23T21:30:28.159Z,8.63
2023-04-23T21:32:57.227Z,9.10
2023-04-23T21:35:26.237Z,9.20
2023-04-23T21:37:55.341Z,9.00
2023-04-23T21:40:24.574Z,8.00
2023-04-23T21:42:53.532Z,7.42
2023-04-23T21:45:22.422Z,8.70
2023-04-23T21:47:51.658Z,7.53
2023-04-23T21:50:20.615Z,8.23
2023-04-23T21:52:49.721Z,7.72
2023-04-23T21:55:18.612Z,7.92
2023-04-23T21:57:47.591Z,7.17
2023-04-23T22:00:16.305Z,6.78
2023-04-23T22:02:44.884Z,7.37
2023-04-23T22:05:14.373Z,8.03
2023-04-23T22:07:43.265Z,7.47
2023-04-23T22:10:12.259Z,8.53
2023-04-23T22:12:41.556Z,8.50
2023-04-23T22:15:10.453Z,7.40
2023-04-23T22:17:39.349Z,7.90
2023-04-23T22:20:08.441Z,8.68
2023-04-23T22:22:37.321Z,8.58
2023-04-23T22:25:06.423Z,8.15
2023-04-23T22:27:35.625Z,7.67
2023-04-23T22:30:04.880Z,9.57
2023-04-23T22:32:34.255Z,8.33
2023-04-23T22:35:03.255Z,8.55
2023-04-23T22:37:32.314Z,8.28
2023-04-23T22:40:01.707Z,7.65
2023-04-23T22:42:30.605Z,9.10
2023-04-23T22:44:59.694Z,9.93
2023-04-23T22:47:29.024Z,11.30
2023-04-23T22:49:57.867Z,22.37
2023-04-23T22:52:26.915Z,13.25
2023-04-23T22:54:56.082Z,13.62
2023-04-23T22:57:24.998Z,12.90
2023-04-23T22:59:54.076Z,13.88
2023-04-23T23:02:23.394Z,14.33
2023-04-23T23:04:52.887Z,14.98
2023-04-23T23:07:22.073Z,13.40
2023-04-23T23:09:51.260Z,16.25
2023-04-23T23:12:20.277Z,13.50
2023-04-23T23:14:49.159Z,15.70
2023-04-23T23:17:18.486Z,17.17
2023-04-23T23:19:47.552Z,23.73
2023-04-23T23:22:16.439Z,19.02
2023-04-23T23:24:45.534Z,20.15
2023-04-23T23:27:14.948Z,22.43
2023-04-23T23:29:44.272Z,21.65
2023-04-23T23:32:13.543Z,22.20
2023-04-23T23:34:42.642Z,22.63
2023-04-23T23:37:11.528Z,23.53
2023-04-23T23:39:40.742Z,23.45
2023-04-23T23:42:10.137Z,23.50
2023-04-23T23:44:39.441Z,24.47
2023-04-23T23:47:08.529Z,26.35
2023-04-23T23:49:37.620Z,24.60
2023-04-23T23:52:06.826Z,23.42
2023-04-23T23:54:36.224Z,24.80
2023-04-23T23:57:05.243Z,24.95
2023-04-23T23:59:34.110Z,24.95
